sensor_id;sensor_type;location;lat;lon;timestamp;temperature;humidity
16273;DHT22;8244;50.044;9.006;2023-09-18T00:04:02;20.20;99.90
16273;DHT22;8244;50.044;9.006;2023-09-18T00:09:04;20.10;99.90
16273;DHT22;8244;50.044;9.006;2023-09-18T00:14:09;20.10;99.90
16273;DHT22;8244;50.044;9.006;2023-09-18T00:19:10;20.10;99.90
16273;DHT22;8244;50.044;9.006;2023-09-18T00:24:12;20.00;99.90
16273;DHT22;8244;50.044;9.006;2023-09-18T00:29:15;20.00;99.90
16273;DHT22;8244;50.044;9.006;2023-09-18T00:34:17;20.00;99.90
16273;DHT22;8244;50.044;9.006;2023-09-18T00:39:18;19.90;99.90
16273;DHT22;8244;50.044;9.006;2023-09-18T00:44:21;19.90;99.90
16273;DHT22;8244;50.044;9.006;2023-09-18T00:49:24;19.90;99.90
16273;DHT22;8244;50.044;9.006;2023-09-18T00:54:26;19.90;99.90
16273;DHT22;8244;50.044;9.006;2023-09-18T00:59:29;19.80;99.90
16273;DHT22;8244;50.044;9.006;2023-09-18T01:04:33;19.80;99.90
16273;DHT22;8244;50.044;9.006;2023-09-18T01:09:35;19.80;99.90
16273;DHT22;8244;50.044;9.006;2023-09-18T01:14:42;19.80;99.90
16273;DHT22;8244;50.044;9.006;2023-09-18T01:19:46;19.80;99.90
16273;DHT22;8244;50.044;9.006;2023-09-18T01:24:49;19.80;99.90
16273;DHT22;8244;50.044;9.006;2023-09-18T01:29:51;19.90;99.90
16273;DHT22;8244;50.044;9.006;2023-09-18T01:34:55;19.90;99.90
16273;DHT22;8244;50.044;9.006;2023-09-18T01:39:59;19.90;99.90
16273;DHT22;8244;50.044;9.006;2023-09-18T01:45:01;19.90;99.90
16273;DHT22;8244;50.044;9.006;2023-09-18T01:50:05;19.90;99.90
16273;DHT22;8244;50.044;9.006;2023-09-18T01:55:09;19.90;99.90
16273;DHT22;8244;50.044;9.006;2023-09-18T02:00:12;19.80;99.90
16273;DHT22;8244;50.044;9.006;2023-09-18T02:05:15;19.90;99.90
16273;DHT22;8244;50.044;9.006;2023-09-18T02:10:18;19.90;99.90
16273;DHT22;8244;50.044;9.006;2023-09-18T02:15:20;19.90;99.90
16273;DHT22;8244;50.044;9.006;2023-09-18T02:20:21;20.00;99.90
16273;DHT22;8244;50.044;9.006;2023-09-18T02:25:24;20.00;99.90
16273;DHT22;8244;50.044;9.006;2023-09-18T02:30:26;20.10;99.90
16273;DHT22;8244;50.044;9.006;2023-09-18T02:35:29;20.20;99.90
16273;DHT22;8244;50.044;9.006;2023-09-18T02:40:32;20.30;99.90
16273;DHT22;8244;50.044;9.006;2023-09-18T02:45:34;20.30;99.90
16273;DHT22;8244;50.044;9.006;2023-09-18T02:50:35;20.40;99.90
16273;DHT22;8244;50.044;9.006;2023-09-18T02:55:38;20.30;99.90
16273;DHT22;8244;50.044;9.006;2023-09-18T03:00:43;20.30;99.90
16273;DHT22;8244;50.044;9.006;2023-09-18T03:05:45;20.20;99.90
16273;DHT22;8244;50.044;9.006;2023-09-18T03:10:48;20.10;99.90
16273;DHT22;8244;50.044;9.006;2023-09-18T03:15:50;20.00;99.90
16273;DHT22;8244;50.044;9.006;2023-09-18T03:20:51;19.90;99.90
16273;DHT22;8244;50.044;9.006;2023-09-18T03:25:54;19.80;99.90
16273;DHT22;8244;50.044;9.006;2023-09-18T03:30:57;19.70;99.90
16273;DHT22;8244;50.044;9.006;2023-09-18T03:35:59;19.60;99.90
16273;DHT22;8244;50.044;9.006;2023-09-18T03:41:02;19.60;99.90
16273;DHT22;8244;50.044;9.006;2023-09-18T03:46:04;19.60;99.90
16273;DHT22;8244;50.044;9.006;2023-09-18T03:51:07;19.60;99.90
16273;DHT22;8244;50.044;9.006;2023-09-18T03:56:10;19.60;99.90
16273;DHT22;8244;50.044;9.006;2023-09-18T04:01:11;19.60;99.90
16273;DHT22;8244;50.044;9.006;2023-09-18T04:06:15;19.60;99.90
16273;DHT22;8244;50.044;9.006;2023-09-18T04:11:21;19.60;99.90
16273;DHT22;8244;50.044;9.006;2023-09-18T04:16:25;19.60;99.90
16273;DHT22;8244;50.044;9.006;2023-09-18T04:21:28;19.60;99.90
16273;DHT22;8244;50.044;9.006;2023-09-18T04:26:32;19.60;99.90
16273;DHT22;8244;50.044;9.006;2023-09-18T04:31:33;19.60;99.90
16273;DHT22;8244;50.044;9.006;2023-09-18T04:36:35;19.60;99.90
16273;DHT22;8244;50.044;9.006;2023-09-18T04:41:39;19.60;99.90
16273;DHT22;8244;50.044;9.006;2023-09-18T04:46:42;19.60;99.90
16273;DHT22;8244;50.044;9.006;2023-09-18T04:51:43;19.60;99.90
16273;DHT22;8244;50.044;9.006;2023-09-18T04:56:46;19.60;99.90
16273;DHT22;8244;50.044;9.006;2023-09-18T05:01:48;19.60;99.90
16273;DHT22;8244;50.044;9.006;2023-09-18T05:06:50;19.60;99.90
16273;DHT22;8244;50.044;9.006;2023-09-18T05:11:53;19.60;99.90
16273;DHT22;8244;50.044;9.006;2023-09-18T05:16:55;19.60;99.90
16273;DHT22;8244;50.044;9.006;2023-09-18T05:21:57;19.60;99.90
16273;DHT22;8244;50.044;9.006;2023-09-18T05:27:00;19.60;99.90
16273;DHT22;8244;50.044;9.006;2023-09-18T05:32:01;19.60;99.90
16273;DHT22;8244;50.044;9.006;2023-09-18T05:37:04;19.60;99.90
16273;DHT22;8244;50.044;9.006;2023-09-18T05:42:07;19.70;99.90
16273;DHT22;8244;50.044;9.006;2023-09-18T05:47:09;19.70;99.90
16273;DHT22;8244;50.044;9.006;2023-09-18T05:52:10;19.70;99.90
16273;DHT22;8244;50.044;9.006;2023-09-18T05:57:14;19.70;99.90
16273;DHT22;8244;50.044;9.006;2023-09-18T06:02:16;19.80;99.90
16273;DHT22;8244;50.044;9.006;2023-09-18T06:07:18;19.80;99.90
16273;DHT22;8244;50.044;9.006;2023-09-18T06:12:21;19.90;99.90
16273;DHT22;8244;50.044;9.006;2023-09-18T06:17:24;20.00;99.90
16273;DHT22;8244;50.044;9.006;2023-09-18T06:22:25;20.00;99.90
16273;DHT22;8244;50.044;9.006;2023-09-18T06:27:28;20.00;99.90
16273;DHT22;8244;50.044;9.006;2023-09-18T06:32:30;20.00;99.90
16273;DHT22;8244;50.044;9.006;2023-09-18T06:37:32;20.00;99.90
16273;DHT22;8244;50.044;9.006;2023-09-18T06:42:35;20.10;99.90
16273;DHT22;8244;50.044;9.006;2023-09-18T06:47:37;20.20;99.90
16273;DHT22;8244;50.044;9.006;2023-09-18T06:52:40;20.20;99.90
16273;DHT22;8244;50.044;9.006;2023-09-18T06:57:43;20.30;99.90
16273;DHT22;8244;50.044;9.006;2023-09-18T07:02:45;20.50;99.90
16273;DHT22;8244;50.044;9.006;2023-09-18T07:07:47;20.60;99.90
16273;DHT22;8244;50.044;9.006;2023-09-18T07:12:50;20.80;99.90
16273;DHT22;8244;50.044;9.006;2023-09-18T07:17:51;20.90;99.90
16273;DHT22;8244;50.044;9.006;2023-09-18T07:22:53;21.00;99.90
16273;DHT22;8244;50.044;9.006;2023-09-18T07:27:57;21.00;99.90
16273;DHT22;8244;50.044;9.006;2023-09-18T07:32:59;21.00;99.90
16273;DHT22;8244;50.044;9.006;2023-09-18T07:38:01;21.20;99.90
16273;DHT22;8244;50.044;9.006;2023-09-18T07:43:04;21.30;99.90
16273;DHT22;8244;50.044;9.006;2023-09-18T07:48:06;21.40;99.90
16273;DHT22;8244;50.044;9.006;2023-09-18T07:53:07;21.50;99.90
16273;DHT22;8244;50.044;9.006;2023-09-18T07:58:11;21.60;99.90
16273;DHT22;8244;50.044;9.006;2023-09-18T08:03:14;21.70;99.90
16273;DHT22;8244;50.044;9.006;2023-09-18T08:08:15;21.80;99.90
16273;DHT22;8244;50.044;9.006;2023-09-18T08:13:19;21.90;99.90
16273;DHT22;8244;50.044;9.006;2023-09-18T08:18:21;22.10;99.90
16273;DHT22;8244;50.044;9.006;2023-09-18T08:23:22;22.10;99.90
16273;DHT22;8244;50.044;9.006;2023-09-18T08:28:25;22.30;99.90
16273;DHT22;8244;50.044;9.006;2023-09-18T08:33:27;22.50;99.90
16273;DHT22;8244;50.044;9.006;2023-09-18T08:38:29;22.60;99.90
16273;DHT22;8244;50.044;9.006;2023-09-18T08:43:33;22.70;99.90
16273;DHT22;8244;50.044;9.006;2023-09-18T08:48:35;22.90;99.90
16273;DHT22;8244;50.044;9.006;2023-09-18T08:53:37;23.10;99.90
16273;DHT22;8244;50.044;9.006;2023-09-18T08:58:40;23.30;99.90
16273;DHT22;8244;50.044;9.006;2023-09-18T09:03:43;23.50;99.90
16273;DHT22;8244;50.044;9.006;2023-09-18T09:08:45;23.50;99.90
16273;DHT22;8244;50.044;9.006;2023-09-18T09:14:02;23.60;99.90
16273;DHT22;8244;50.044;9.006;2023-09-18T09:19:09;23.60;99.90
16273;DHT22;8244;50.044;9.006;2023-09-18T09:24:11;23.70;99.90
16273;DHT22;8244;50.044;9.006;2023-09-18T09:29:17;23.70;99.90
16273;DHT22;8244;50.044;9.006;2023-09-18T09:34:25;23.60;99.90
16273;DHT22;8244;50.044;9.006;2023-09-18T09:39:27;23.70;99.90
16273;DHT22;8244;50.044;9.006;2023-09-18T09:44:33;23.80;99.90
16273;DHT22;8244;50.044;9.006;2023-09-18T09:49:45;23.80;99.90
16273;DHT22;8244;50.044;9.006;2023-09-18T09:54:47;23.90;99.90
16273;DHT22;8244;50.044;9.006;2023-09-18T09:59:50;23.90;99.90
16273;DHT22;8244;50.044;9.006;2023-09-18T10:04:52;23.90;99.90
16273;DHT22;8244;50.044;9.006;2023-09-18T10:09:54;23.90;99.90
16273;DHT22;8244;50.044;9.006;2023-09-18T10:14:57;23.80;99.90
16273;DHT22;8244;50.044;9.006;2023-09-18T10:20:02;23.80;99.90
16273;DHT22;8244;50.044;9.006;2023-09-18T10:25:13;23.60;99.90
16273;DHT22;8244;50.044;9.006;2023-09-18T10:30:17;23.60;99.90
16273;DHT22;8244;50.044;9.006;2023-09-18T10:35:19;23.50;99.90
16273;DHT22;8244;50.044;9.006;2023-09-18T10:40:21;23.50;99.90
16273;DHT22;8244;50.044;9.006;2023-09-18T10:45:25;23.40;99.90
16273;DHT22;8244;50.044;9.006;2023-09-18T10:50:28;23.50;99.90
16273;DHT22;8244;50.044;9.006;2023-09-18T10:55:31;23.60;99.90
16273;DHT22;8244;50.044;9.006;2023-09-18T11:00:34;23.70;99.90
16273;DHT22;8244;50.044;9.006;2023-09-18T11:05:37;23.90;99.90
16273;DHT22;8244;50.044;9.006;2023-09-18T11:10:55;24.00;99.90
16273;DHT22;8244;50.044;9.006;2023-09-18T11:16:02;24.20;99.90
16273;DHT22;8244;50.044;9.006;2023-09-18T11:21:15;24.20;99.90
16273;DHT22;8244;50.044;9.006;2023-09-18T11:26:20;24.30;99.90
16273;DHT22;8244;50.044;9.006;2023-09-18T11:31:41;24.30;99.90
16273;DHT22;8244;50.044;9.006;2023-09-18T11:36:43;24.40;99.90
16273;DHT22;8244;50.044;9.006;2023-09-18T11:41:45;24.40;99.90
16273;DHT22;8244;50.044;9.006;2023-09-18T11:46:50;24.60;99.90
16273;DHT22;8244;50.044;9.006;2023-09-18T11:51:52;24.70;99.90
16273;DHT22;8244;50.044;9.006;2023-09-18T11:56:54;25.00;99.90
16273;DHT22;8244;50.044;9.006;2023-09-18T12:01:59;25.00;99.90
16273;DHT22;8244;50.044;9.006;2023-09-18T12:07:06;25.00;99.90
16273;DHT22;8244;50.044;9.006;2023-09-18T12:12:09;24.90;99.90
16273;DHT22;8244;50.044;9.006;2023-09-18T12:17:16;24.60;99.90
16273;DHT22;8244;50.044;9.006;2023-09-18T12:22:23;24.60;99.90
16273;DHT22;8244;50.044;9.006;2023-09-18T12:27:26;24.70;99.90
16273;DHT22;8244;50.044;9.006;2023-09-18T12:32:30;24.80;99.90
16273;DHT22;8244;50.044;9.006;2023-09-18T12:37:33;24.80;99.90
16273;DHT22;8244;50.044;9.006;2023-09-18T12:42:35;24.90;99.90
16273;DHT22;8244;50.044;9.006;2023-09-18T12:47:42;25.10;99.90
16273;DHT22;8244;50.044;9.006;2023-09-18T12:52:44;25.10;99.90
16273;DHT22;8244;50.044;9.006;2023-09-18T12:57:46;24.90;99.90
16273;DHT22;8244;50.044;9.006;2023-09-18T13:02:51;24.80;99.90
16273;DHT22;8244;50.044;9.006;2023-09-18T13:07:55;24.90;99.90
16273;DHT22;8244;50.044;9.006;2023-09-18T13:12:57;24.90;99.90
16273;DHT22;8244;50.044;9.006;2023-09-18T13:18:09;25.10;99.90
16273;DHT22;8244;50.044;9.006;2023-09-18T13:23:11;25.20;99.90
16273;DHT22;8244;50.044;9.006;2023-09-18T13:28:14;25.30;99.90
16273;DHT22;8244;50.044;9.006;2023-09-18T13:33:18;25.60;99.90
16273;DHT22;8244;50.044;9.006;2023-09-18T13:38:20;25.70;99.90
16273;DHT22;8244;50.044;9.006;2023-09-18T13:43:22;25.70;99.90
16273;DHT22;8244;50.044;9.006;2023-09-18T13:48:25;25.90;99.90
16273;DHT22;8244;50.044;9.006;2023-09-18T13:53:26;26.20;99.90
16273;DHT22;8244;50.044;9.006;2023-09-18T13:58:28;26.20;99.90
16273;DHT22;8244;50.044;9.006;2023-09-18T14:03:31;26.50;99.90
16273;DHT22;8244;50.044;9.006;2023-09-18T14:08:33;26.30;99.90
16273;DHT22;8244;50.044;9.006;2023-09-18T14:13:35;26.20;99.90
16273;DHT22;8244;50.044;9.006;2023-09-18T14:18:38;26.30;99.90
16273;DHT22;8244;50.044;9.006;2023-09-18T14:23:40;26.50;99.90
16273;DHT22;8244;50.044;9.006;2023-09-18T14:28:41;26.40;99.90
16273;DHT22;8244;50.044;9.006;2023-09-18T14:33:46;26.40;99.90
16273;DHT22;8244;50.044;9.006;2023-09-18T14:38:48;26.50;99.90
16273;DHT22;8244;50.044;9.006;2023-09-18T14:43:49;26.70;99.90
16273;DHT22;8244;50.044;9.006;2023-09-18T14:48:53;26.80;99.90
16273;DHT22;8244;50.044;9.006;2023-09-18T14:53:55;26.80;99.90
16273;DHT22;8244;50.044;9.006;2023-09-18T14:58:57;26.80;99.90
16273;DHT22;8244;50.044;9.006;2023-09-18T15:04:00;26.60;99.90
16273;DHT22;8244;50.044;9.006;2023-09-18T15:09:02;26.60;99.90
16273;DHT22;8244;50.044;9.006;2023-09-18T15:14:04;26.30;99.90
16273;DHT22;8244;50.044;9.006;2023-09-18T15:19:07;26.30;99.90
16273;DHT22;8244;50.044;9.006;2023-09-18T15:24:11;26.50;99.90
16273;DHT22;8244;50.044;9.006;2023-09-18T15:29:14;26.40;99.90
16273;DHT22;8244;50.044;9.006;2023-09-18T15:34:18;26.30;99.90
16273;DHT22;8244;50.044;9.006;2023-09-18T15:39:19;26.10;99.90
16273;DHT22;8244;50.044;9.006;2023-09-18T15:44:21;26.00;99.90
16273;DHT22;8244;50.044;9.006;2023-09-18T15:49:24;25.90;99.90
16273;DHT22;8244;50.044;9.006;2023-09-18T15:54:26;25.80;99.90
16273;DHT22;8244;50.044;9.006;2023-09-18T15:59:27;25.70;99.90
16273;DHT22;8244;50.044;9.006;2023-09-18T16:04:32;25.60;99.90
16273;DHT22;8244;50.044;9.006;2023-09-18T16:09:33;25.40;99.90
16273;DHT22;8244;50.044;9.006;2023-09-18T16:14:35;25.30;99.90
16273;DHT22;8244;50.044;9.006;2023-09-18T16:19:38;25.20;99.90
16273;DHT22;8244;50.044;9.006;2023-09-18T16:24:40;25.10;99.90
16273;DHT22;8244;50.044;9.006;2023-09-18T16:29:41;25.00;99.90
16273;DHT22;8244;50.044;9.006;2023-09-18T16:34:44;24.90;99.90
16273;DHT22;8244;50.044;9.006;2023-09-18T16:39:46;24.90;99.90
16273;DHT22;8244;50.044;9.006;2023-09-18T16:44:47;24.80;99.90
16273;DHT22;8244;50.044;9.006;2023-09-18T16:49:51;24.70;99.90
16273;DHT22;8244;50.044;9.006;2023-09-18T16:54:52;24.60;99.90
16273;DHT22;8244;50.044;9.006;2023-09-18T16:59:55;24.50;99.90
16273;DHT22;8244;50.044;9.006;2023-09-18T17:04:58;24.40;99.90
16273;DHT22;8244;50.044;9.006;2023-09-18T17:10:00;24.30;99.90
16273;DHT22;8244;50.044;9.006;2023-09-18T17:15:01;24.20;99.90
16273;DHT22;8244;50.044;9.006;2023-09-18T17:20:06;24.10;99.90
16273;DHT22;8244;50.044;9.006;2023-09-18T17:25:08;24.00;99.90
16273;DHT22;8244;50.044;9.006;2023-09-18T17:30:11;23.80;99.90
16273;DHT22;8244;50.044;9.006;2023-09-18T17:35:16;23.70;99.90
16273;DHT22;8244;50.044;9.006;2023-09-18T17:40:18;23.50;99.90
16273;DHT22;8244;50.044;9.006;2023-09-18T17:45:20;23.30;99.90
16273;DHT22;8244;50.044;9.006;2023-09-18T17:50:23;23.20;99.90
16273;DHT22;8244;50.044;9.006;2023-09-18T17:55:25;23.10;99.90
16273;DHT22;8244;50.044;9.006;2023-09-18T18:00:27;23.00;99.90
16273;DHT22;8244;50.044;9.006;2023-09-18T18:05:30;22.80;99.90
16273;DHT22;8244;50.044;9.006;2023-09-18T18:10:31;22.70;99.90
16273;DHT22;8244;50.044;9.006;2023-09-18T18:15:35;22.70;99.90
16273;DHT22;8244;50.044;9.006;2023-09-18T18:20:41;22.60;99.90
16273;DHT22;8244;50.044;9.006;2023-09-18T18:25:43;22.60;99.90
16273;DHT22;8244;50.044;9.006;2023-09-18T18:30:48;22.50;99.90
16273;DHT22;8244;50.044;9.006;2023-09-18T18:35:51;22.50;99.90
16273;DHT22;8244;50.044;9.006;2023-09-18T18:40:56;22.40;99.90
16273;DHT22;8244;50.044;9.006;2023-09-18T18:45:58;22.30;99.90
16273;DHT22;8244;50.044;9.006;2023-09-18T18:51:01;22.30;99.90
16273;DHT22;8244;50.044;9.006;2023-09-18T18:56:03;22.20;99.90
16273;DHT22;8244;50.044;9.006;2023-09-18T19:01:05;22.10;99.90
16273;DHT22;8244;50.044;9.006;2023-09-18T19:06:08;22.00;99.90
16273;DHT22;8244;50.044;9.006;2023-09-18T19:11:10;21.90;99.90
16273;DHT22;8244;50.044;9.006;2023-09-18T19:16:13;21.90;99.90
16273;DHT22;8244;50.044;9.006;2023-09-18T19:21:16;21.90;99.90
16273;DHT22;8244;50.044;9.006;2023-09-18T19:26:18;21.80;99.90
16273;DHT22;8244;50.044;9.006;2023-09-18T19:31:21;21.70;99.90
16273;DHT22;8244;50.044;9.006;2023-09-18T19:36:26;21.70;99.90
16273;DHT22;8244;50.044;9.006;2023-09-18T19:41:28;21.60;99.90
16273;DHT22;8244;50.044;9.006;2023-09-18T19:46:30;21.50;99.90
16273;DHT22;8244;50.044;9.006;2023-09-18T19:51:36;21.40;99.90
16273;DHT22;8244;50.044;9.006;2023-09-18T19:56:38;21.20;99.90
16273;DHT22;8244;50.044;9.006;2023-09-18T20:01:40;21.10;99.90
16273;DHT22;8244;50.044;9.006;2023-09-18T20:06:44;21.00;99.90
16273;DHT22;8244;50.044;9.006;2023-09-18T20:11:46;20.90;99.90
16273;DHT22;8244;50.044;9.006;2023-09-18T20:16:48;20.80;99.90
16273;DHT22;8244;50.044;9.006;2023-09-18T20:21:51;20.70;99.90
16273;DHT22;8244;50.044;9.006;2023-09-18T20:26:54;20.60;99.90
16273;DHT22;8244;50.044;9.006;2023-09-18T20:31:55;20.40;99.90
16273;DHT22;8244;50.044;9.006;2023-09-18T20:36:58;20.40;99.90
16273;DHT22;8244;50.044;9.006;2023-09-18T20:42:00;20.20;99.90
16273;DHT22;8244;50.044;9.006;2023-09-18T20:47:02;20.10;99.90
16273;DHT22;8244;50.044;9.006;2023-09-18T20:52:06;20.00;99.90
16273;DHT22;8244;50.044;9.006;2023-09-18T20:57:07;19.90;99.90
16273;DHT22;8244;50.044;9.006;2023-09-18T21:02:09;19.70;99.90
16273;DHT22;8244;50.044;9.006;2023-09-18T21:07:15;19.60;99.90
16273;DHT22;8244;50.044;9.006;2023-09-18T21:12:20;19.50;99.90
16273;DHT22;8244;50.044;9.006;2023-09-18T21:17:23;19.40;99.90
16273;DHT22;8244;50.044;9.006;2023-09-18T21:22:26;19.20;99.90
16273;DHT22;8244;50.044;9.006;2023-09-18T21:27:28;19.10;99.90
16273;DHT22;8244;50.044;9.006;2023-09-18T21:32:29;19.00;99.90
16273;DHT22;8244;50.044;9.006;2023-09-18T21:37:33;18.90;99.90
16273;DHT22;8244;50.044;9.006;2023-09-18T21:42:34;18.80;99.90
16273;DHT22;8244;50.044;9.006;2023-09-18T21:47:38;18.70;99.90
16273;DHT22;8244;50.044;9.006;2023-09-18T21:52:41;18.60;99.90
16273;DHT22;8244;50.044;9.006;2023-09-18T21:57:43;18.50;99.90
16273;DHT22;8244;50.044;9.006;2023-09-18T22:02:45;18.50;99.90
16273;DHT22;8244;50.044;9.006;2023-09-18T22:07:48;18.40;99.90
16273;DHT22;8244;50.044;9.006;2023-09-18T22:12:51;18.30;99.90
16273;DHT22;8244;50.044;9.006;2023-09-18T22:17:53;18.20;99.90
16273;DHT22;8244;50.044;9.006;2023-09-18T22:22:56;18.20;99.90
16273;DHT22;8244;50.044;9.006;2023-09-18T22:28:04;18.20;99.90
16273;DHT22;8244;50.044;9.006;2023-09-18T22:33:06;18.20;99.90
16273;DHT22;8244;50.044;9.006;2023-09-18T22:38:23;18.20;99.90
16273;DHT22;8244;50.044;9.006;2023-09-18T22:54:50;18.10;99.90
16273;DHT22;8244;50.044;9.006;2023-09-18T22:59:54;18.00;99.90
16273;DHT22;8244;50.044;9.006;2023-09-18T23:04:57;17.90;99.90
16273;DHT22;8244;50.044;9.006;2023-09-18T23:10:01;17.90;99.90
16273;DHT22;8244;50.044;9.006;2023-09-18T23:15:06;17.90;99.90
16273;DHT22;8244;50.044;9.006;2023-09-18T23:20:09;17.90;99.90
16273;DHT22;8244;50.044;9.006;2023-09-18T23:25:13;17.90;99.90
16273;DHT22;8244;50.044;9.006;2023-09-18T23:30:17;17.90;99.90
16273;DHT22;8244;50.044;9.006;2023-09-18T23:35:19;17.90;99.90
16273;DHT22;8244;50.044;9.006;2023-09-18T23:40:23;17.90;99.90
16273;DHT22;8244;50.044;9.006;2023-09-18T23:45:27;17.90;99.90
16273;DHT22;8244;50.044;9.006;2023-09-18T23:50:33;17.90;99.90
16273;DHT22;8244;50.044;9.006;2023-09-18T23:55:37;17.90;99.90
